createdAt,value
2022-12-08T00:01:12.077Z,100409.97
2022-12-08T00:03:38.728Z,100408.25
2022-12-08T00:06:06.156Z,100408.25
2022-12-08T00:08:32.580Z,100400.34
2022-12-08T00:10:58.977Z,100397.69
2022-12-08T00:13:25.399Z,100398.56
2022-12-08T00:15:51.799Z,100388.06
2022-12-08T00:18:18.232Z,100388.06
2022-12-08T00:20:44.634Z,100381.94
2022-12-08T00:23:11.039Z,100377.56
2022-12-08T00:25:37.450Z,100386.28
2022-12-08T00:28:03.918Z,100381.91
2022-12-08T00:30:30.331Z,100382.78
2022-12-08T00:32:56.714Z,100371.41
2022-12-08T00:35:23.137Z,100376.66
2022-12-08T00:37:49.545Z,100367.91
2022-12-08T00:40:15.973Z,100362.63
2022-12-08T00:42:42.361Z,100367.03
2022-12-08T00:45:09.099Z,100363.50
2022-12-08T00:47:35.513Z,100348.59
2022-12-08T00:50:02.427Z,100348.59
2022-12-08T00:52:29.049Z,100338.91
2022-12-08T00:54:55.432Z,100352.94
2022-12-08T00:57:21.858Z,100340.66
2022-12-08T00:59:48.240Z,100345.91
2022-12-08T01:02:14.791Z,100339.78
2022-12-08T01:04:41.228Z,100338.03
2022-12-08T01:07:07.756Z,100339.75
2022-12-08T01:09:34.210Z,100332.72
2022-12-08T01:12:00.608Z,100330.97
2022-12-08T01:14:27.020Z,100330.97
2022-12-08T01:16:53.487Z,100330.09
2022-12-08T01:19:19.942Z,100333.56
2022-12-08T01:21:46.376Z,100336.19
2022-12-08T01:24:14.078Z,100330.06
2022-12-08T01:26:40.515Z,100329.19
2022-12-08T01:29:06.914Z,100327.41
2022-12-08T01:31:33.326Z,100326.50
2022-12-08T01:33:59.730Z,100320.34
2022-12-08T01:36:30.206Z,100315.09
2022-12-08T01:38:57.739Z,100316.84
2022-12-08T01:41:25.384Z,100315.97
2022-12-08T01:44:00.765Z,100314.22
2022-12-08T01:46:28.342Z,100308.06
2022-12-08T01:49:00.549Z,100317.69
2022-12-08T01:51:27.153Z,100319.44
2022-12-08T01:53:53.556Z,100314.22
2022-12-08T01:56:33.187Z,100312.50
2022-12-08T01:58:59.586Z,100306.38
2022-12-08T02:01:26.062Z,100309.97
2022-12-08T02:03:57.177Z,100314.41
2022-12-08T02:06:23.584Z,100310.94
2022-12-08T02:08:50.024Z,100315.31
2022-12-08T02:11:16.573Z,100321.47
2022-12-08T02:13:44.053Z,100308.34
2022-12-08T02:16:37.063Z,100303.06
2022-12-08T02:19:37.467Z,100299.59
2022-12-08T02:22:10.858Z,100296.94
2022-12-08T02:24:48.826Z,100288.16
2022-12-08T02:27:38.248Z,100293.41
2022-12-08T02:30:07.515Z,100279.34
2022-12-08T02:32:50.831Z,100284.59
2022-12-08T02:35:45.251Z,100285.47
2022-12-08T02:38:52.719Z,100284.56
2022-12-08T02:41:34.114Z,100275.78
2022-12-08T02:44:13.574Z,100271.38
2022-12-08T02:46:48.261Z,100266.09
2022-12-08T02:49:14.721Z,100267.84
2022-12-08T02:51:41.279Z,100268.72
2022-12-08T02:54:07.680Z,100267.81
2022-12-08T02:56:50.634Z,100267.78
2022-12-08T02:59:20.807Z,100269.53
2022-12-08T03:02:08.461Z,100265.16
2022-12-08T03:05:01.586Z,100260.72
2022-12-08T03:07:33.588Z,100256.38
2022-12-08T03:10:05.946Z,100252.00
2022-12-08T03:12:57.250Z,100248.50
2022-12-08T03:15:23.646Z,100251.97
2022-12-08T03:17:54.990Z,100241.44
2022-12-08T03:20:22.968Z,100245.81
2022-12-08T03:22:49.480Z,100244.91
2022-12-08T03:25:16.466Z,100244.88
2022-12-08T03:27:42.870Z,100236.09
2022-12-08T03:30:09.714Z,100237.84
2022-12-08T03:32:42.929Z,100227.31
2022-12-08T03:35:11.522Z,100231.69
2022-12-08T03:37:38.363Z,100220.31
2022-12-08T03:40:06.520Z,100222.94
2022-12-08T03:42:33.176Z,100233.50
2022-12-08T03:44:59.587Z,100230.00
2022-12-08T03:47:25.977Z,100224.75
2022-12-08T03:49:52.385Z,100228.25
2022-12-08T03:52:18.769Z,100233.53
2022-12-08T03:54:45.182Z,100230.00
2022-12-08T03:57:11.611Z,100223.88
2022-12-08T03:59:38.053Z,100224.69
2022-12-08T04:02:04.538Z,100226.47
2022-12-08T04:04:31.034Z,100222.13
2022-12-08T04:06:57.447Z,100218.59
2022-12-08T04:09:23.836Z,100215.97
2022-12-08T04:11:50.261Z,100213.34
2022-12-08T04:14:16.654Z,100204.59
2022-12-08T04:16:43.051Z,100205.47
2022-12-08T04:19:09.442Z,100208.97
2022-12-08T04:21:35.845Z,100203.72
2022-12-08T04:24:02.234Z,100200.22
2022-12-08T04:26:28.712Z,100194.06
2022-12-08T04:28:55.128Z,100197.63
2022-12-08T04:31:21.597Z,100192.38
2022-12-08T04:33:48.038Z,100188.00
2022-12-08T04:36:14.447Z,100194.16
2022-12-08T04:38:40.849Z,100197.66
2022-12-08T04:41:07.349Z,100198.53
2022-12-08T04:43:33.771Z,100189.78
2022-12-08T04:46:00.165Z,100190.63
2022-12-08T04:48:26.578Z,100180.09
2022-12-08T04:50:52.986Z,100180.94
2022-12-08T04:53:19.397Z,100167.84
2022-12-08T04:55:45.802Z,100175.66
2022-12-08T04:58:13.396Z,100171.34
2022-12-08T05:00:40.202Z,100174.84
2022-12-08T05:03:06.640Z,100178.38
2022-12-08T05:05:33.086Z,100185.38
2022-12-08T05:07:59.562Z,100190.66
2022-12-08T05:10:26.002Z,100174.88
2022-12-08T05:12:52.399Z,100185.38
2022-12-08T05:15:18.793Z,100187.13
2022-12-08T05:17:45.178Z,100183.69
2022-12-08T05:20:11.820Z,100190.72
2022-12-08T05:22:38.241Z,100185.44
2022-12-08T05:25:04.953Z,100176.66
2022-12-08T05:27:31.341Z,100179.31
2022-12-08T05:29:57.717Z,100174.03
2022-12-08T05:32:24.144Z,100177.53
2022-12-08T05:34:50.547Z,100180.13
2022-12-08T05:37:16.977Z,100171.41
2022-12-08T05:39:43.370Z,100173.16
2022-12-08T05:42:09.784Z,100171.44
2022-12-08T05:44:36.157Z,100176.69
2022-12-08T05:47:02.598Z,100179.38
2022-12-08T05:49:28.997Z,100187.25
2022-12-08T05:51:55.418Z,100189.00
2022-12-08T05:54:21.873Z,100189.00
2022-12-08T05:56:48.273Z,100191.66
2022-12-08T05:59:14.681Z,100196.91
2022-12-08T06:01:41.106Z,100200.41
2022-12-08T06:04:07.598Z,100203.91
2022-12-08T06:06:34.577Z,100193.34
2022-12-08T06:09:02.697Z,100195.97
2022-12-08T06:11:29.991Z,100190.69
2022-12-08T06:13:56.692Z,100192.47
2022-12-08T06:16:23.940Z,100197.72
2022-12-08T06:18:50.374Z,100188.94
2022-12-08T06:21:16.929Z,100190.72
2022-12-08T06:23:43.360Z,100190.69
2022-12-08T06:26:12.045Z,100201.25
2022-12-08T06:28:39.444Z,100196.03
2022-12-08T06:31:14.954Z,100198.72
2022-12-08T06:33:41.381Z,100199.59
2022-12-08T06:36:07.817Z,100200.53
2022-12-08T06:38:35.106Z,100201.41
2022-12-08T06:41:03.542Z,100197.97
2022-12-08T06:43:29.925Z,100196.22
2022-12-08T06:45:56.396Z,100200.59
2022-12-08T06:48:22.872Z,100213.72
2022-12-08T06:50:49.277Z,100212.88
2022-12-08T06:53:15.814Z,100211.09
2022-12-08T06:56:01.108Z,100217.22
2022-12-08T06:58:27.584Z,100213.72
2022-12-08T07:00:54.082Z,100211.94
2022-12-08T07:03:20.589Z,100213.69
2022-12-08T07:05:46.989Z,100218.06
2022-12-08T07:08:13.502Z,100222.47
2022-12-08T07:10:39.984Z,100214.59
2022-12-08T07:13:06.405Z,100212.84
2022-12-08T07:15:32.776Z,100211.97
2022-12-08T07:18:00.240Z,100218.09
2022-12-08T07:20:27.112Z,100215.47
2022-12-08T07:22:53.575Z,100213.72
2022-12-08T07:25:20.056Z,100216.34
2022-12-08T07:27:46.468Z,100215.47
2022-12-08T07:30:13.505Z,100218.09
2022-12-08T07:32:39.890Z,100211.97
2022-12-08T07:35:06.942Z,100212.84
2022-12-08T07:37:33.973Z,100217.22
2022-12-08T07:40:00.375Z,100217.22
2022-12-08T07:42:26.829Z,100219.81
2022-12-08T07:44:53.256Z,100211.94
2022-12-08T07:47:19.651Z,100216.31
2022-12-08T07:49:46.064Z,100211.03
2022-12-08T07:52:12.481Z,100212.78
2022-12-08T07:54:38.893Z,100214.53
2022-12-08T07:57:05.311Z,100218.94
2022-12-08T07:59:32.266Z,100229.41
2022-12-08T08:02:22.319Z,100226.81
2022-12-08T08:04:45.069Z,100215.38
2022-12-08T08:07:11.640Z,100225.91
2022-12-08T08:09:38.053Z,100224.16
2022-12-08T08:12:29.519Z,100229.41
2022-12-08T08:14:51.069Z,100239.03
2022-12-08T08:17:17.610Z,100237.25
2022-12-08T08:19:44.066Z,100232.91
2022-12-08T08:22:10.454Z,100231.16
2022-12-08T08:24:41.586Z,100233.78
2022-12-08T08:27:11.031Z,100234.66
2022-12-08T08:29:37.450Z,100225.88
2022-12-08T08:32:03.912Z,100239.03
2022-12-08T08:34:30.354Z,100239.03
2022-12-08T08:36:56.804Z,100238.16
2022-12-08T08:39:23.337Z,100233.78
2022-12-08T08:41:49.757Z,100240.78
2022-12-08T08:44:16.164Z,100241.66
2022-12-08T08:46:42.694Z,100243.44
2022-12-08T08:49:09.217Z,100238.22
2022-12-08T08:51:35.635Z,100234.72
2022-12-08T08:54:02.032Z,100241.75
2022-12-08T08:56:28.441Z,100241.75
2022-12-08T08:58:54.845Z,100240.00
2022-12-08T09:01:23.317Z,100242.63
2022-12-08T09:03:50.174Z,100248.78
2022-12-08T09:06:16.745Z,100242.69
2022-12-08T09:08:43.404Z,100244.44
2022-12-08T09:11:09.936Z,100248.81
2022-12-08T09:13:36.430Z,100244.44
2022-12-08T09:16:05.034Z,100248.84
2022-12-08T09:18:31.665Z,100249.72
2022-12-08T09:21:04.193Z,100253.19
2022-12-08T09:23:35.195Z,100251.44
2022-12-08T09:26:02.594Z,100246.19
2022-12-08T09:28:29.012Z,100247.00
2022-12-08T09:30:55.430Z,100248.75
2022-12-08T09:33:21.867Z,100253.16
2022-12-08T09:35:48.266Z,100254.91
2022-12-08T09:38:15.218Z,100263.69
2022-12-08T09:40:52.625Z,100264.56
2022-12-08T09:43:31.645Z,100264.56
2022-12-08T09:45:58.061Z,100269.81
2022-12-08T09:48:29.711Z,100269.81
2022-12-08T09:50:56.831Z,100279.47
2022-12-08T09:53:25.990Z,100276.81
2022-12-08T09:55:59.239Z,100275.06
2022-12-08T09:58:41.567Z,100277.69
2022-12-08T10:01:11.341Z,100267.16
2022-12-08T10:03:37.822Z,100268.91
2022-12-08T10:06:16.282Z,100272.41
2022-12-08T10:09:15.226Z,100275.88
2022-12-08T10:11:56.850Z,100275.84
2022-12-08T10:14:38.596Z,100272.34
2022-12-08T10:17:11.445Z,100280.22
2022-12-08T10:19:37.833Z,100287.19
2022-12-08T10:22:12.232Z,100282.81
2022-12-08T10:24:44.533Z,100276.72
2022-12-08T10:27:11.227Z,100283.69
2022-12-08T10:29:43.770Z,100279.34
2022-12-08T10:32:17.578Z,100274.09
2022-12-08T10:35:00.325Z,100282.81
2022-12-08T10:37:26.760Z,100291.63
2022-12-08T10:40:02.902Z,100287.25
2022-12-08T10:42:34.315Z,100281.97
2022-12-08T10:45:28.517Z,100288.94
2022-12-08T10:48:13.402Z,100289.81
2022-12-08T10:50:44.470Z,100292.44
2022-12-08T10:53:15.710Z,100295.91
2022-12-08T10:55:45.973Z,100292.41
2022-12-08T10:58:40.570Z,100287.16
2022-12-08T11:01:09.965Z,100273.94
2022-12-08T11:03:47.438Z,100273.00
2022-12-08T11:06:37.957Z,100279.13
2022-12-08T11:09:17.414Z,100271.22
2022-12-08T11:11:49.669Z,100285.28
2022-12-08T11:14:30.521Z,100286.16
2022-12-08T11:17:09.222Z,100291.44
2022-12-08T11:19:54.805Z,100282.66
2022-12-08T11:22:21.080Z,100288.84
2022-12-08T11:24:49.263Z,100293.22
2022-12-08T11:27:15.660Z,100290.59
2022-12-08T11:29:42.057Z,100291.47
2022-12-08T11:32:12.625Z,100290.59
2022-12-08T11:34:50.590Z,100295.84
2022-12-08T11:37:24.051Z,100282.69
2022-12-08T11:39:51.825Z,100283.56
2022-12-08T11:42:19.147Z,100286.22
2022-12-08T11:44:49.575Z,100288.78
2022-12-08T11:47:20.589Z,100281.78
2022-12-08T11:52:23.029Z,100283.41
2022-12-08T11:55:05.169Z,100283.31
2022-12-08T11:57:31.625Z,100282.38
2022-12-08T11:59:58.303Z,100277.13
2022-12-08T12:02:26.503Z,100287.69
2022-12-08T12:05:23.596Z,100282.41
2022-12-08T12:08:18.028Z,100285.94
2022-12-08T12:10:59.489Z,100285.94
2022-12-08T12:13:32.740Z,100289.47
2022-12-08T12:16:21.665Z,100285.13
2022-12-08T12:18:52.401Z,100284.28
2022-12-08T12:21:36.533Z,100285.19
2022-12-08T12:24:07.986Z,100280.88
2022-12-08T12:26:38.282Z,100286.13
2022-12-08T12:29:18.812Z,100277.38
2022-12-08T12:31:49.958Z,100282.66
2022-12-08T12:34:29.497Z,100288.78
2022-12-08T12:37:10.301Z,100289.66
2022-12-08T12:40:06.949Z,100296.69
2022-12-08T12:42:56.700Z,100295.84
2022-12-08T12:45:24.860Z,100288.78
2022-12-08T12:47:57.331Z,100286.16
2022-12-08T12:50:32.825Z,100291.41
2022-12-08T12:53:00.169Z,100292.28
2022-12-08T12:55:27.805Z,100289.72
2022-12-08T12:57:55.925Z,100300.22
2022-12-08T13:00:24.095Z,100299.31
2022-12-08T13:02:51.306Z,100299.31
2022-12-08T13:05:25.460Z,100301.06
2022-12-08T13:08:02.683Z,100298.44
2022-12-08T13:10:36.798Z,100303.69
2022-12-08T13:13:14.587Z,100298.44
2022-12-08T13:15:50.913Z,100293.09
2022-12-08T13:18:36.334Z,100288.72
2022-12-08T13:21:05.535Z,100292.19
2022-12-08T13:23:37.932Z,100296.56
2022-12-08T13:26:19.515Z,100298.31
2022-12-08T13:29:01.125Z,100293.03
2022-12-08T13:32:23.112Z,100290.41
2022-12-08T13:34:50.317Z,100288.66
2022-12-08T13:37:31.142Z,100295.69
2022-12-08T13:40:04.215Z,100284.28
2022-12-08T13:43:04.892Z,100293.94
2022-12-08T13:46:12.512Z,100286.91
2022-12-08T13:49:13.600Z,100292.22
2022-12-08T13:53:34.157Z,100296.59
2022-12-08T13:55:19.740Z,100299.25
2022-12-08T13:57:11.078Z,100288.78
2022-12-08T13:59:43.272Z,100300.13
2022-12-08T14:02:26.399Z,100300.13
2022-12-08T14:07:39.383Z,100310.63
2022-12-08T14:10:13.317Z,100296.66
2022-12-08T14:12:40.661Z,100312.41
2022-12-08T14:15:07.638Z,100308.91
2022-12-08T14:17:34.061Z,100312.41
2022-12-08T14:20:11.066Z,100313.28
2022-12-08T14:22:38.565Z,100316.84
2022-12-08T14:25:06.030Z,100322.94
2022-12-08T14:27:34.367Z,100322.06
2022-12-08T14:30:02.478Z,100318.53
2022-12-08T14:32:34.205Z,100322.06
2022-12-08T14:35:33.396Z,100327.31
2022-12-08T14:38:26.026Z,100327.31
2022-12-08T14:41:06.159Z,100327.31
2022-12-08T14:43:32.728Z,100327.31
2022-12-08T14:46:00.975Z,100329.06
2022-12-08T14:48:33.455Z,100331.72
2022-12-08T14:51:21.100Z,100329.13
2022-12-08T14:53:58.767Z,100337.91
2022-12-08T14:56:31.454Z,100337.03
2022-12-08T14:59:21.069Z,100341.41
2022-12-08T15:01:47.878Z,100338.81
2022-12-08T15:04:14.193Z,100337.94
2022-12-08T15:06:50.772Z,100334.44
2022-12-08T15:09:27.137Z,100331.75
2022-12-08T15:12:26.171Z,100343.16
2022-12-08T15:15:09.345Z,100351.94
2022-12-08T15:17:41.830Z,100344.91
2022-12-08T15:20:39.099Z,100346.72
2022-12-08T15:23:05.658Z,100346.75
2022-12-08T15:25:32.089Z,100348.50
2022-12-08T15:27:58.499Z,100352.06
2022-12-08T15:30:24.982Z,100362.56
2022-12-08T15:32:51.386Z,100355.59
2022-12-08T15:35:17.808Z,100358.22
2022-12-08T15:37:44.226Z,100365.28
2022-12-08T15:40:16.674Z,100371.41
2022-12-08T15:42:43.421Z,100365.25
2022-12-08T15:45:16.562Z,100374.06
2022-12-08T15:47:43.332Z,100377.56
2022-12-08T15:50:17.087Z,100381.03
2022-12-08T15:52:43.553Z,100386.28
2022-12-08T15:55:13.843Z,100382.75
2022-12-08T16:00:52.511Z,100373.94
2022-12-08T16:09:11.965Z,100370.44
2022-12-08T16:12:05.144Z,100374.78
2022-12-08T16:15:38.677Z,100378.28
2022-12-08T16:17:15.418Z,100377.41
2022-12-08T16:19:41.689Z,100378.25
2022-12-08T16:25:23.341Z,100388.75
2022-12-08T16:28:36.813Z,100387.00
2022-12-08T16:30:38.277Z,100392.31
2022-12-08T16:33:04.802Z,100389.69
2022-12-08T16:35:31.272Z,100387.94
2022-12-08T16:37:57.707Z,100396.69
2022-12-08T16:40:24.140Z,100404.59
2022-12-08T16:42:50.605Z,100394.94
2022-12-08T16:45:20.674Z,100403.75
2022-12-08T16:47:54.272Z,100396.72
2022-12-08T16:50:31.392Z,100401.13
2022-12-08T16:53:03.433Z,100406.38
2022-12-08T16:55:29.836Z,100408.16
2022-12-08T16:57:56.296Z,100415.19
2022-12-08T17:00:24.194Z,100413.44
2022-12-08T17:02:50.636Z,100417.84
2022-12-08T17:05:17.877Z,100412.56
2022-12-08T17:07:45.287Z,100422.22
2022-12-08T17:10:14.833Z,100424.84
2022-12-08T17:12:43.339Z,100423.09
2022-12-08T17:15:11.785Z,100428.38
2022-12-08T17:17:38.329Z,100431.00
2022-12-08T17:20:09.757Z,100423.97
2022-12-08T17:22:36.192Z,100429.25
2022-12-08T17:25:02.935Z,100429.25
2022-12-08T17:27:29.342Z,100424.84
2022-12-08T17:29:55.754Z,100430.09
2022-12-08T17:32:22.191Z,100424.88
2022-12-08T17:34:48.697Z,100434.47
2022-12-08T17:37:15.838Z,100431.88
2022-12-08T17:39:43.293Z,100426.59
2022-12-08T17:42:09.698Z,100428.38
2022-12-08T17:44:36.094Z,100424.84
2022-12-08T17:47:03.659Z,100429.25
2022-12-08T17:49:30.225Z,100424.88
2022-12-08T17:51:58.868Z,100423.13
2022-12-08T17:54:25.385Z,100426.59
2022-12-08T17:56:51.821Z,100417.00
2022-12-08T17:59:18.316Z,100437.13
2022-12-08T18:01:44.848Z,100438.88
2022-12-08T18:04:11.413Z,100431.00
2022-12-08T18:06:38.261Z,100417.84
2022-12-08T18:09:05.139Z,100419.59
2022-12-08T18:11:31.510Z,100416.94
2022-12-08T18:13:57.915Z,100423.97
2022-12-08T18:16:25.658Z,100421.31
2022-12-08T18:18:52.102Z,100421.34
2022-12-08T18:21:23.370Z,100413.47
2022-12-08T18:23:50.470Z,100416.09
2022-12-08T18:26:16.892Z,100409.09
2022-12-08T18:28:43.305Z,100413.47
2022-12-08T18:31:19.589Z,100410.84
2022-12-08T18:33:46.662Z,100416.09
2022-12-08T18:36:15.837Z,100411.72
2022-12-08T18:38:42.305Z,100416.09
2022-12-08T18:41:10.521Z,100421.34
2022-12-08T18:43:37.046Z,100417.84
2022-12-08T18:46:07.977Z,100415.22
2022-12-08T18:48:36.292Z,100419.59
2022-12-08T18:51:03.946Z,100422.25
2022-12-08T18:53:30.364Z,100424.00
2022-12-08T18:55:58.051Z,100420.50
2022-12-08T18:58:24.470Z,100420.47
2022-12-08T19:00:50.863Z,100428.34
2022-12-08T19:03:23.452Z,100430.09
2022-12-08T19:05:49.961Z,100430.09
2022-12-08T19:08:16.423Z,100425.72
2022-12-08T19:10:42.904Z,100427.44
2022-12-08T19:13:09.981Z,100434.44
2022-12-08T19:15:36.500Z,100434.41
2022-12-08T19:18:07.198Z,100444.88
2022-12-08T19:20:33.640Z,100444.00
2022-12-08T19:23:00.036Z,100437.00
2022-12-08T19:25:26.455Z,100439.59
2022-12-08T19:27:55.029Z,100438.72
2022-12-08T19:30:22.982Z,100433.47
2022-12-08T19:32:50.949Z,100442.22
2022-12-08T19:35:17.444Z,100439.59
2022-12-08T19:37:43.869Z,100446.56
2022-12-08T19:40:14.549Z,100442.19
2022-12-08T19:42:40.957Z,100441.34
2022-12-08T19:45:15.628Z,100444.84
2022-12-08T19:47:42.171Z,100445.75
2022-12-08T19:50:09.377Z,100446.63
2022-12-08T19:52:35.790Z,100451.88
2022-12-08T19:55:02.194Z,100456.28
2022-12-08T19:57:28.627Z,100452.81
2022-12-08T19:59:56.510Z,100452.78
2022-12-08T20:02:23.131Z,100455.44
2022-12-08T20:04:49.634Z,100459.81
2022-12-08T20:07:16.044Z,100466.84
2022-12-08T20:09:42.474Z,100471.19
2022-12-08T20:12:08.877Z,100469.44
2022-12-08T20:14:35.308Z,100464.16
2022-12-08T20:17:01.704Z,100462.41
2022-12-08T20:19:28.132Z,100465.00
2022-12-08T20:21:54.538Z,100472.84
2022-12-08T20:24:20.943Z,100473.72
2022-12-08T20:26:47.422Z,100473.72
2022-12-08T20:29:13.822Z,100471.09
2022-12-08T20:31:40.318Z,100476.34
2022-12-08T20:34:06.796Z,100472.88
2022-12-08T20:36:33.280Z,100465.84
2022-12-08T20:38:59.682Z,100472.88
2022-12-08T20:41:26.096Z,100474.56
2022-12-08T20:43:52.636Z,100485.06
2022-12-08T20:46:19.212Z,100478.94
2022-12-08T20:48:45.791Z,100476.28
2022-12-08T20:51:19.282Z,100481.53
2022-12-08T20:53:46.096Z,100478.03
2022-12-08T20:56:23.042Z,100482.38
2022-12-08T20:58:53.361Z,100484.13
2022-12-08T21:01:22.045Z,100482.34
2022-12-08T21:03:50.950Z,100492.00
2022-12-08T21:06:21.343Z,100487.63
2022-12-08T21:08:47.975Z,100489.34
2022-12-08T21:11:18.686Z,100484.06
2022-12-08T21:13:45.219Z,100489.31
2022-12-08T21:16:15.615Z,100479.72
2022-12-08T21:18:42.513Z,100487.63
2022-12-08T21:21:11.009Z,100486.75
2022-12-08T21:23:37.549Z,100483.25
2022-12-08T21:26:16.235Z,100479.78
2022-12-08T21:28:44.441Z,100478.91
2022-12-08T21:31:17.409Z,100477.97
2022-12-08T21:33:44.420Z,100479.75
2022-12-08T21:36:12.720Z,100486.69
2022-12-08T21:38:39.474Z,100488.44
2022-12-08T21:41:07.963Z,100484.94
2022-12-08T21:43:35.140Z,100491.94
2022-12-08T21:46:01.684Z,100494.56
2022-12-08T21:48:31.855Z,100495.44
2022-12-08T21:51:03.898Z,100496.28
2022-12-08T21:53:30.516Z,100495.44
2022-12-08T21:56:00.626Z,100493.69
2022-12-08T21:58:27.143Z,100497.22
2022-12-08T22:00:53.609Z,100496.34
2022-12-08T22:03:20.381Z,100492.00
2022-12-08T22:05:47.091Z,100491.16
2022-12-08T22:08:13.726Z,100499.06
2022-12-08T22:10:40.279Z,100499.03
2022-12-08T22:13:07.257Z,100492.91
2022-12-08T22:15:33.854Z,100499.88
2022-12-08T22:18:00.456Z,100498.13
2022-12-08T22:20:27.068Z,100488.50
2022-12-08T22:22:56.483Z,100493.75
2022-12-08T22:25:22.989Z,100492.00
2022-12-08T22:27:49.422Z,100489.38
2022-12-08T22:30:15.956Z,100496.38
2022-12-08T22:32:42.640Z,100493.78
2022-12-08T22:35:09.623Z,100491.16
2022-12-08T22:37:38.740Z,100488.47
2022-12-08T22:40:06.562Z,100496.31
2022-12-08T22:42:33.384Z,100494.56
2022-12-08T22:44:59.963Z,100488.44
2022-12-08T22:47:29.023Z,100496.28
2022-12-08T22:49:55.996Z,100490.16
2022-12-08T22:52:24.001Z,100499.75
2022-12-08T22:54:50.470Z,100494.50
2022-12-08T22:57:17.063Z,100497.09
2022-12-08T22:59:43.669Z,100503.16
2022-12-08T23:02:10.147Z,100503.16
2022-12-08T23:04:36.631Z,100508.47
2022-12-08T23:07:03.153Z,100504.13
2022-12-08T23:09:29.583Z,100500.69
2022-12-08T23:11:55.962Z,100504.16
2022-12-08T23:14:22.651Z,100505.06
2022-12-08T23:16:49.235Z,100498.06
2022-12-08T23:19:15.757Z,100501.56
2022-12-08T23:21:42.179Z,100499.81
2022-12-08T23:24:08.640Z,100498.88
2022-12-08T23:26:35.125Z,100498.00
2022-12-08T23:29:01.832Z,100503.25
2022-12-08T23:31:28.304Z,100495.44
2022-12-08T23:33:54.854Z,100494.53
2022-12-08T23:36:21.555Z,100494.53
2022-12-08T23:38:48.053Z,100492.81
2022-12-08T23:41:15.046Z,100492.75
2022-12-08T23:43:49.001Z,100496.25
2022-12-08T23:46:16.254Z,100504.97
2022-12-08T23:48:42.818Z,100498.00
2022-12-08T23:51:09.334Z,100507.66
2022-12-08T23:53:36.215Z,100510.28
2022-12-08T23:56:04.670Z,100491.06
2022-12-08T23:58:31.278Z,100504.16
